sensor_id;sensor_type;location;lat;lon;timestamp;P1;durP1;ratioP1;P2;durP2;ratioP2
3867;SDS011;1949;48.152;11.528;2022-09-24T00:01:28;22.87;;;10.10;;
3867;SDS011;1949;48.152;11.528;2022-09-24T00:04:00;15.47;;;6.10;;
3867;SDS011;1949;48.152;11.528;2022-09-24T00:06:37;7.83;;;4.93;;
3867;SDS011;1949;48.152;11.528;2022-09-24T00:14:11;6.90;;;4.33;;
3867;SDS011;1949;48.152;11.528;2022-09-24T00:16:38;7.87;;;4.60;;
3867;SDS011;1949;48.152;11.528;2022-09-24T00:19:07;6.10;;;4.03;;
3867;SDS011;1949;48.152;11.528;2022-09-24T00:21:34;5.03;;;4.03;;
3867;SDS011;1949;48.152;11.528;2022-09-24T00:24:04;5.70;;;3.97;;
3867;SDS011;1949;48.152;11.528;2022-09-24T00:29:17;5.70;;;4.10;;
3867;SDS011;1949;48.152;11.528;2022-09-24T00:31:53;10.90;;;4.63;;
3867;SDS011;1949;48.152;11.528;2022-09-24T00:34:25;7.40;;;4.23;;
3867;SDS011;1949;48.152;11.528;2022-09-24T00:36:51;8.70;;;4.17;;
3867;SDS011;1949;48.152;11.528;2022-09-24T00:44:47;6.00;;;3.60;;
3867;SDS011;1949;48.152;11.528;2022-09-24T00:47:33;5.40;;;3.60;;
3867;SDS011;1949;48.152;11.528;2022-09-24T00:50:21;6.47;;;3.67;;
3867;SDS011;1949;48.152;11.528;2022-09-24T00:52:49;5.13;;;3.27;;
3867;SDS011;1949;48.152;11.528;2022-09-24T00:55:19;7.77;;;3.80;;
3867;SDS011;1949;48.152;11.528;2022-09-24T00:57:48;4.73;;;3.70;;
3867;SDS011;1949;48.152;11.528;2022-09-24T01:00:16;7.60;;;3.93;;
3867;SDS011;1949;48.152;11.528;2022-09-24T01:02:43;5.87;;;3.43;;
3867;SDS011;1949;48.152;11.528;2022-09-24T01:05:13;7.10;;;3.30;;
3867;SDS011;1949;48.152;11.528;2022-09-24T01:07:39;9.23;;;3.60;;
3867;SDS011;1949;48.152;11.528;2022-09-24T01:10:05;6.73;;;3.80;;
3867;SDS011;1949;48.152;11.528;2022-09-24T01:15:25;3.40;;;2.80;;
3867;SDS011;1949;48.152;11.528;2022-09-24T01:21:06;3.77;;;2.80;;
3867;SDS011;1949;48.152;11.528;2022-09-24T01:26:43;6.93;;;3.10;;
3867;SDS011;1949;48.152;11.528;2022-09-24T01:32:01;4.33;;;3.27;;
3867;SDS011;1949;48.152;11.528;2022-09-24T01:34:34;3.90;;;3.03;;
3867;SDS011;1949;48.152;11.528;2022-09-24T01:37:07;4.23;;;2.37;;
3867;SDS011;1949;48.152;11.528;2022-09-24T01:39:34;3.33;;;2.60;;
3867;SDS011;1949;48.152;11.528;2022-09-24T01:44:31;4.10;;;3.53;;
3867;SDS011;1949;48.152;11.528;2022-09-24T01:46:58;10.07;;;3.43;;
3867;SDS011;1949;48.152;11.528;2022-09-24T01:49:31;3.43;;;2.63;;
3867;SDS011;1949;48.152;11.528;2022-09-24T01:51:59;5.73;;;3.00;;
3867;SDS011;1949;48.152;11.528;2022-09-24T01:54:32;6.07;;;3.17;;
3867;SDS011;1949;48.152;11.528;2022-09-24T01:59:58;4.60;;;3.43;;
3867;SDS011;1949;48.152;11.528;2022-09-24T02:02:37;3.80;;;3.13;;
3867;SDS011;1949;48.152;11.528;2022-09-24T02:05:08;5.20;;;3.33;;
3867;SDS011;1949;48.152;11.528;2022-09-24T02:08:04;5.73;;;2.80;;
3867;SDS011;1949;48.152;11.528;2022-09-24T02:10:29;2.83;;;2.53;;
3867;SDS011;1949;48.152;11.528;2022-09-24T02:13:02;4.20;;;2.87;;
3867;SDS011;1949;48.152;11.528;2022-09-24T02:15:33;4.87;;;2.77;;
3867;SDS011;1949;48.152;11.528;2022-09-24T02:18:14;3.20;;;2.63;;
3867;SDS011;1949;48.152;11.528;2022-09-24T02:20:43;2.90;;;2.50;;
3867;SDS011;1949;48.152;11.528;2022-09-24T02:23:11;4.50;;;3.17;;
3867;SDS011;1949;48.152;11.528;2022-09-24T02:25:58;6.10;;;2.80;;
3867;SDS011;1949;48.152;11.528;2022-09-24T02:28:30;5.60;;;2.87;;
3867;SDS011;1949;48.152;11.528;2022-09-24T02:36:38;6.63;;;3.00;;
3867;SDS011;1949;48.152;11.528;2022-09-24T02:39:07;3.50;;;2.50;;
3867;SDS011;1949;48.152;11.528;2022-09-24T02:41:32;2.93;;;2.63;;
3867;SDS011;1949;48.152;11.528;2022-09-24T02:43:59;3.87;;;2.67;;
3867;SDS011;1949;48.152;11.528;2022-09-24T02:46:26;4.07;;;2.90;;
3867;SDS011;1949;48.152;11.528;2022-09-24T02:48:52;3.00;;;2.50;;
3867;SDS011;1949;48.152;11.528;2022-09-24T02:51:24;5.57;;;2.70;;
3867;SDS011;1949;48.152;11.528;2022-09-24T02:53:51;6.47;;;4.13;;
3867;SDS011;1949;48.152;11.528;2022-09-24T02:56:19;13.30;;;5.70;;
3867;SDS011;1949;48.152;11.528;2022-09-24T02:58:44;11.30;;;5.53;;
3867;SDS011;1949;48.152;11.528;2022-09-24T03:01:10;10.60;;;5.87;;
3867;SDS011;1949;48.152;11.528;2022-09-24T03:03:42;14.37;;;7.40;;
3867;SDS011;1949;48.152;11.528;2022-09-24T03:06:07;18.43;;;6.87;;
3867;SDS011;1949;48.152;11.528;2022-09-24T03:08:35;22.37;;;10.60;;
3867;SDS011;1949;48.152;11.528;2022-09-24T03:11:01;13.47;;;5.30;;
3867;SDS011;1949;48.152;11.528;2022-09-24T03:13:27;10.50;;;5.47;;
3867;SDS011;1949;48.152;11.528;2022-09-24T03:15:53;6.50;;;3.37;;
3867;SDS011;1949;48.152;11.528;2022-09-24T03:18:34;8.90;;;4.83;;
3867;SDS011;1949;48.152;11.528;2022-09-24T03:21:05;4.70;;;3.57;;
3867;SDS011;1949;48.152;11.528;2022-09-24T03:23:33;7.67;;;4.70;;
3867;SDS011;1949;48.152;11.528;2022-09-24T03:25:59;2.90;;;2.60;;
3867;SDS011;1949;48.152;11.528;2022-09-24T03:28:31;5.23;;;3.43;;
3867;SDS011;1949;48.152;11.528;2022-09-24T03:30:59;16.73;;;7.70;;
3867;SDS011;1949;48.152;11.528;2022-09-24T03:36:20;7.23;;;4.97;;
3867;SDS011;1949;48.152;11.528;2022-09-24T03:38:50;5.70;;;3.00;;
3867;SDS011;1949;48.152;11.528;2022-09-24T03:41:24;9.50;;;3.67;;
3867;SDS011;1949;48.152;11.528;2022-09-24T03:43:52;5.87;;;3.03;;
3867;SDS011;1949;48.152;11.528;2022-09-24T03:46:18;5.83;;;3.40;;
3867;SDS011;1949;48.152;11.528;2022-09-24T03:48:47;4.83;;;3.70;;
3867;SDS011;1949;48.152;11.528;2022-09-24T03:51:16;14.10;;;7.50;;
3867;SDS011;1949;48.152;11.528;2022-09-24T03:53:45;15.13;;;7.67;;
3867;SDS011;1949;48.152;11.528;2022-09-24T03:56:11;12.60;;;7.10;;
3867;SDS011;1949;48.152;11.528;2022-09-24T03:58:37;3.70;;;2.90;;
3867;SDS011;1949;48.152;11.528;2022-09-24T04:01:07;2.60;;;2.37;;
3867;SDS011;1949;48.152;11.528;2022-09-24T04:03:34;4.83;;;2.97;;
3867;SDS011;1949;48.152;11.528;2022-09-24T04:06:01;11.50;;;5.57;;
3867;SDS011;1949;48.152;11.528;2022-09-24T04:08:28;10.60;;;4.07;;
3867;SDS011;1949;48.152;11.528;2022-09-24T04:10:55;6.80;;;3.83;;
3867;SDS011;1949;48.152;11.528;2022-09-24T04:13:21;15.67;;;5.73;;
3867;SDS011;1949;48.152;11.528;2022-09-24T04:15:51;6.70;;;4.07;;
3867;SDS011;1949;48.152;11.528;2022-09-24T04:18:17;12.27;;;5.60;;
3867;SDS011;1949;48.152;11.528;2022-09-24T04:20:43;14.20;;;6.80;;
3867;SDS011;1949;48.152;11.528;2022-09-24T04:23:09;5.57;;;3.23;;
3867;SDS011;1949;48.152;11.528;2022-09-24T04:25:37;6.67;;;2.57;;
3867;SDS011;1949;48.152;11.528;2022-09-24T04:28:10;4.37;;;2.93;;
3867;SDS011;1949;48.152;11.528;2022-09-24T04:30:37;11.33;;;6.70;;
3867;SDS011;1949;48.152;11.528;2022-09-24T04:33:03;11.87;;;6.07;;
3867;SDS011;1949;48.152;11.528;2022-09-24T04:35:34;7.30;;;4.57;;
3867;SDS011;1949;48.152;11.528;2022-09-24T04:38:03;5.57;;;3.70;;
3867;SDS011;1949;48.152;11.528;2022-09-24T04:40:29;5.33;;;3.00;;
3867;SDS011;1949;48.152;11.528;2022-09-24T04:42:55;7.30;;;3.53;;
3867;SDS011;1949;48.152;11.528;2022-09-24T04:45:23;3.77;;;2.70;;
3867;SDS011;1949;48.152;11.528;2022-09-24T04:47:50;10.53;;;3.87;;
3867;SDS011;1949;48.152;11.528;2022-09-24T04:50:31;6.30;;;3.30;;
3867;SDS011;1949;48.152;11.528;2022-09-24T04:52:58;4.83;;;2.80;;
3867;SDS011;1949;48.152;11.528;2022-09-24T04:55:25;3.67;;;2.93;;
3867;SDS011;1949;48.152;11.528;2022-09-24T04:57:54;5.60;;;4.10;;
3867;SDS011;1949;48.152;11.528;2022-09-24T05:00:22;4.70;;;2.40;;
3867;SDS011;1949;48.152;11.528;2022-09-24T05:02:54;4.93;;;3.60;;
3867;SDS011;1949;48.152;11.528;2022-09-24T05:05:22;4.20;;;3.10;;
3867;SDS011;1949;48.152;11.528;2022-09-24T05:07:50;19.53;;;5.90;;
3867;SDS011;1949;48.152;11.528;2022-09-24T05:10:17;38.20;;;6.60;;
3867;SDS011;1949;48.152;11.528;2022-09-24T05:12:44;5.80;;;3.63;;
3867;SDS011;1949;48.152;11.528;2022-09-24T05:15:13;6.90;;;3.97;;
3867;SDS011;1949;48.152;11.528;2022-09-24T05:20:08;9.30;;;4.47;;
3867;SDS011;1949;48.152;11.528;2022-09-24T05:22:39;4.20;;;3.30;;
3867;SDS011;1949;48.152;11.528;2022-09-24T05:25:08;15.17;;;3.00;;
3867;SDS011;1949;48.152;11.528;2022-09-24T05:27:36;5.67;;;3.07;;
3867;SDS011;1949;48.152;11.528;2022-09-24T05:30:03;5.47;;;3.00;;
3867;SDS011;1949;48.152;11.528;2022-09-24T05:32:32;5.57;;;3.10;;
3867;SDS011;1949;48.152;11.528;2022-09-24T05:34:59;4.60;;;3.00;;
3867;SDS011;1949;48.152;11.528;2022-09-24T05:39:57;12.90;;;4.30;;
3867;SDS011;1949;48.152;11.528;2022-09-24T05:42:43;3.33;;;2.90;;
3867;SDS011;1949;48.152;11.528;2022-09-24T05:45:10;5.90;;;2.73;;
3867;SDS011;1949;48.152;11.528;2022-09-24T05:47:37;4.67;;;3.00;;
3867;SDS011;1949;48.152;11.528;2022-09-24T05:50:03;11.57;;;3.33;;
3867;SDS011;1949;48.152;11.528;2022-09-24T05:52:29;10.10;;;3.10;;
3867;SDS011;1949;48.152;11.528;2022-09-24T05:54:54;6.40;;;3.53;;
3867;SDS011;1949;48.152;11.528;2022-09-24T05:57:22;6.03;;;3.60;;
3867;SDS011;1949;48.152;11.528;2022-09-24T05:59:48;5.53;;;3.93;;
3867;SDS011;1949;48.152;11.528;2022-09-24T06:02:16;9.00;;;3.60;;
3867;SDS011;1949;48.152;11.528;2022-09-24T06:04:42;6.03;;;3.70;;
3867;SDS011;1949;48.152;11.528;2022-09-24T06:07:09;12.83;;;3.37;;
3867;SDS011;1949;48.152;11.528;2022-09-24T06:09:36;8.27;;;2.90;;
3867;SDS011;1949;48.152;11.528;2022-09-24T06:12:02;4.07;;;3.13;;
3867;SDS011;1949;48.152;11.528;2022-09-24T06:14:28;5.03;;;3.30;;
3867;SDS011;1949;48.152;11.528;2022-09-24T06:16:55;6.13;;;3.47;;
3867;SDS011;1949;48.152;11.528;2022-09-24T06:19:21;5.60;;;3.07;;
3867;SDS011;1949;48.152;11.528;2022-09-24T06:21:49;4.50;;;3.30;;
3867;SDS011;1949;48.152;11.528;2022-09-24T06:24:15;5.27;;;3.13;;
3867;SDS011;1949;48.152;11.528;2022-09-24T06:26:41;7.33;;;3.83;;
3867;SDS011;1949;48.152;11.528;2022-09-24T06:29:07;3.97;;;2.80;;
3867;SDS011;1949;48.152;11.528;2022-09-24T06:31:34;6.43;;;3.17;;
3867;SDS011;1949;48.152;11.528;2022-09-24T06:34:00;4.97;;;2.80;;
3867;SDS011;1949;48.152;11.528;2022-09-24T06:36:27;8.90;;;4.67;;
3867;SDS011;1949;48.152;11.528;2022-09-24T06:38:55;13.53;;;7.40;;
3867;SDS011;1949;48.152;11.528;2022-09-24T06:41:24;31.97;;;11.10;;
3867;SDS011;1949;48.152;11.528;2022-09-24T06:43:52;19.43;;;9.47;;
3867;SDS011;1949;48.152;11.528;2022-09-24T06:46:18;17.17;;;9.17;;
3867;SDS011;1949;48.152;11.528;2022-09-24T06:48:47;27.27;;;7.70;;
3867;SDS011;1949;48.152;11.528;2022-09-24T06:51:13;17.57;;;8.57;;
3867;SDS011;1949;48.152;11.528;2022-09-24T06:53:39;17.83;;;8.47;;
3867;SDS011;1949;48.152;11.528;2022-09-24T06:56:05;16.93;;;8.47;;
3867;SDS011;1949;48.152;11.528;2022-09-24T06:58:34;6.50;;;4.37;;
3867;SDS011;1949;48.152;11.528;2022-09-24T07:01:00;10.70;;;4.60;;
3867;SDS011;1949;48.152;11.528;2022-09-24T07:03:27;6.53;;;3.83;;
3867;SDS011;1949;48.152;11.528;2022-09-24T07:05:58;11.40;;;4.70;;
3867;SDS011;1949;48.152;11.528;2022-09-24T07:08:29;8.77;;;4.90;;
3867;SDS011;1949;48.152;11.528;2022-09-24T07:11:04;11.10;;;5.40;;
3867;SDS011;1949;48.152;11.528;2022-09-24T07:13:30;17.73;;;5.27;;
3867;SDS011;1949;48.152;11.528;2022-09-24T07:15:56;6.80;;;4.17;;
3867;SDS011;1949;48.152;11.528;2022-09-24T07:18:22;14.20;;;7.20;;
3867;SDS011;1949;48.152;11.528;2022-09-24T07:20:57;6.83;;;2.87;;
3867;SDS011;1949;48.152;11.528;2022-09-24T07:23:27;17.70;;;8.70;;
3867;SDS011;1949;48.152;11.528;2022-09-24T07:25:58;14.37;;;4.20;;
3867;SDS011;1949;48.152;11.528;2022-09-24T07:28:24;14.50;;;7.30;;
3867;SDS011;1949;48.152;11.528;2022-09-24T07:30:59;14.97;;;7.13;;
3867;SDS011;1949;48.152;11.528;2022-09-24T07:33:27;12.70;;;6.50;;
3867;SDS011;1949;48.152;11.528;2022-09-24T07:38:33;10.20;;;5.60;;
3867;SDS011;1949;48.152;11.528;2022-09-24T07:41:03;9.70;;;5.60;;
3867;SDS011;1949;48.152;11.528;2022-09-24T07:43:32;19.10;;;5.10;;
3867;SDS011;1949;48.152;11.528;2022-09-24T07:48:48;9.20;;;4.07;;
3867;SDS011;1949;48.152;11.528;2022-09-24T07:51:20;8.77;;;4.73;;
3867;SDS011;1949;48.152;11.528;2022-09-24T07:53:55;10.43;;;4.60;;
3867;SDS011;1949;48.152;11.528;2022-09-24T07:56:22;4.67;;;2.93;;
3867;SDS011;1949;48.152;11.528;2022-09-24T07:58:51;9.63;;;2.83;;
3867;SDS011;1949;48.152;11.528;2022-09-24T08:01:18;5.53;;;3.50;;
3867;SDS011;1949;48.152;11.528;2022-09-24T08:03:45;8.50;;;4.10;;
3867;SDS011;1949;48.152;11.528;2022-09-24T08:06:13;7.10;;;3.57;;
3867;SDS011;1949;48.152;11.528;2022-09-24T08:08:39;6.30;;;3.47;;
3867;SDS011;1949;48.152;11.528;2022-09-24T08:11:05;5.57;;;3.30;;
3867;SDS011;1949;48.152;11.528;2022-09-24T08:13:32;6.17;;;4.30;;
3867;SDS011;1949;48.152;11.528;2022-09-24T08:15:58;5.90;;;2.90;;
3867;SDS011;1949;48.152;11.528;2022-09-24T08:18:25;8.03;;;3.90;;
3867;SDS011;1949;48.152;11.528;2022-09-24T08:20:52;5.50;;;3.30;;
3867;SDS011;1949;48.152;11.528;2022-09-24T08:23:18;5.53;;;3.23;;
3867;SDS011;1949;48.152;11.528;2022-09-24T08:25:45;14.30;;;5.03;;
3867;SDS011;1949;48.152;11.528;2022-09-24T08:28:14;6.60;;;3.33;;
3867;SDS011;1949;48.152;11.528;2022-09-24T08:30:44;12.20;;;3.30;;
3867;SDS011;1949;48.152;11.528;2022-09-24T08:33:11;9.70;;;3.93;;
3867;SDS011;1949;48.152;11.528;2022-09-24T08:35:37;5.53;;;3.90;;
3867;SDS011;1949;48.152;11.528;2022-09-24T08:38:07;5.23;;;3.63;;
3867;SDS011;1949;48.152;11.528;2022-09-24T08:40:37;6.10;;;3.40;;
3867;SDS011;1949;48.152;11.528;2022-09-24T08:46:01;4.63;;;3.20;;
3867;SDS011;1949;48.152;11.528;2022-09-24T08:48:54;7.83;;;3.83;;
3867;SDS011;1949;48.152;11.528;2022-09-24T08:51:26;7.60;;;3.67;;
3867;SDS011;1949;48.152;11.528;2022-09-24T08:54:06;5.40;;;3.60;;
3867;SDS011;1949;48.152;11.528;2022-09-24T08:56:37;9.77;;;3.77;;
3867;SDS011;1949;48.152;11.528;2022-09-24T08:59:21;5.30;;;3.47;;
3867;SDS011;1949;48.152;11.528;2022-09-24T09:02:20;4.27;;;3.57;;
3867;SDS011;1949;48.152;11.528;2022-09-24T09:05:23;15.63;;;4.57;;
3867;SDS011;1949;48.152;11.528;2022-09-24T09:10:37;12.93;;;5.67;;
3867;SDS011;1949;48.152;11.528;2022-09-24T09:13:14;8.50;;;4.60;;
3867;SDS011;1949;48.152;11.528;2022-09-24T09:15:58;9.20;;;3.97;;
3867;SDS011;1949;48.152;11.528;2022-09-24T09:18:32;11.80;;;6.20;;
3867;SDS011;1949;48.152;11.528;2022-09-24T09:23:54;14.80;;;5.20;;
3867;SDS011;1949;48.152;11.528;2022-09-24T09:26:25;6.37;;;4.30;;
3867;SDS011;1949;48.152;11.528;2022-09-24T09:28:55;16.13;;;7.20;;
3867;SDS011;1949;48.152;11.528;2022-09-24T09:34:24;13.53;;;6.17;;
3867;SDS011;1949;48.152;11.528;2022-09-24T09:43:04;7.50;;;4.77;;
3867;SDS011;1949;48.152;11.528;2022-09-24T09:45:41;4.50;;;3.57;;
3867;SDS011;1949;48.152;11.528;2022-09-24T09:48:27;5.30;;;3.10;;
3867;SDS011;1949;48.152;11.528;2022-09-24T09:51:03;4.90;;;2.77;;
3867;SDS011;1949;48.152;11.528;2022-09-24T09:53:30;5.60;;;3.50;;
3867;SDS011;1949;48.152;11.528;2022-09-24T09:55:57;3.80;;;3.10;;
3867;SDS011;1949;48.152;11.528;2022-09-24T09:58:35;4.63;;;3.40;;
3867;SDS011;1949;48.152;11.528;2022-09-24T10:01:06;4.70;;;2.70;;
3867;SDS011;1949;48.152;11.528;2022-09-24T10:03:45;6.43;;;2.80;;
3867;SDS011;1949;48.152;11.528;2022-09-24T10:06:25;4.97;;;2.70;;
3867;SDS011;1949;48.152;11.528;2022-09-24T10:09:05;3.90;;;3.03;;
3867;SDS011;1949;48.152;11.528;2022-09-24T10:11:40;3.80;;;2.77;;
3867;SDS011;1949;48.152;11.528;2022-09-24T10:14:11;4.00;;;3.17;;
3867;SDS011;1949;48.152;11.528;2022-09-24T10:16:42;3.90;;;2.87;;
3867;SDS011;1949;48.152;11.528;2022-09-24T10:19:19;4.13;;;2.90;;
3867;SDS011;1949;48.152;11.528;2022-09-24T10:21:47;7.03;;;3.80;;
3867;SDS011;1949;48.152;11.528;2022-09-24T10:24:16;4.80;;;3.07;;
3867;SDS011;1949;48.152;11.528;2022-09-24T10:26:53;7.30;;;4.47;;
3867;SDS011;1949;48.152;11.528;2022-09-24T10:29:26;5.73;;;3.70;;
3867;SDS011;1949;48.152;11.528;2022-09-24T10:32:17;5.90;;;3.53;;
3867;SDS011;1949;48.152;11.528;2022-09-24T10:34:56;4.43;;;3.60;;
3867;SDS011;1949;48.152;11.528;2022-09-24T10:37:27;5.87;;;4.10;;
3867;SDS011;1949;48.152;11.528;2022-09-24T10:42:35;4.90;;;3.70;;
3867;SDS011;1949;48.152;11.528;2022-09-24T10:45:02;4.87;;;3.43;;
3867;SDS011;1949;48.152;11.528;2022-09-24T10:56:34;8.40;;;5.17;;
3867;SDS011;1949;48.152;11.528;2022-09-24T11:12:46;10.73;;;6.10;;
3867;SDS011;1949;48.152;11.528;2022-09-24T11:29:50;8.10;;;4.87;;
3867;SDS011;1949;48.152;11.528;2022-09-24T11:32:25;9.53;;;5.37;;
3867;SDS011;1949;48.152;11.528;2022-09-24T11:35:01;12.00;;;6.27;;
3867;SDS011;1949;48.152;11.528;2022-09-24T11:40:31;6.40;;;4.50;;
3867;SDS011;1949;48.152;11.528;2022-09-24T11:53:56;11.17;;;6.13;;
3867;SDS011;1949;48.152;11.528;2022-09-24T12:01:57;4.97;;;3.80;;
3867;SDS011;1949;48.152;11.528;2022-09-24T12:07:32;7.90;;;5.83;;
3867;SDS011;1949;48.152;11.528;2022-09-24T12:12:49;10.30;;;5.83;;
3867;SDS011;1949;48.152;11.528;2022-09-24T12:15:29;10.13;;;5.33;;
3867;SDS011;1949;48.152;11.528;2022-09-24T12:18:25;10.20;;;5.27;;
3867;SDS011;1949;48.152;11.528;2022-09-24T12:20:55;7.70;;;4.50;;
3867;SDS011;1949;48.152;11.528;2022-09-24T12:23:28;6.87;;;4.87;;
3867;SDS011;1949;48.152;11.528;2022-09-24T12:25:57;8.47;;;4.90;;
3867;SDS011;1949;48.152;11.528;2022-09-24T12:28:25;7.63;;;5.20;;
3867;SDS011;1949;48.152;11.528;2022-09-24T12:31:28;8.20;;;5.30;;
3867;SDS011;1949;48.152;11.528;2022-09-24T12:34:30;11.43;;;7.00;;
3867;SDS011;1949;48.152;11.528;2022-09-24T12:37:28;6.77;;;4.90;;
3867;SDS011;1949;48.152;11.528;2022-09-24T12:42:49;11.80;;;5.60;;
3867;SDS011;1949;48.152;11.528;2022-09-24T12:45:19;11.90;;;6.50;;
3867;SDS011;1949;48.152;11.528;2022-09-24T12:47:51;12.20;;;5.10;;
3867;SDS011;1949;48.152;11.528;2022-09-24T12:50:21;6.67;;;4.40;;
3867;SDS011;1949;48.152;11.528;2022-09-24T12:52:51;6.83;;;5.20;;
3867;SDS011;1949;48.152;11.528;2022-09-24T12:57:59;8.43;;;5.30;;
3867;SDS011;1949;48.152;11.528;2022-09-24T13:01:03;8.93;;;5.00;;
3867;SDS011;1949;48.152;11.528;2022-09-24T13:03:36;7.80;;;4.90;;
3867;SDS011;1949;48.152;11.528;2022-09-24T13:06:18;5.73;;;4.33;;
3867;SDS011;1949;48.152;11.528;2022-09-24T13:08:46;6.27;;;4.50;;
3867;SDS011;1949;48.152;11.528;2022-09-24T13:16:37;7.00;;;4.73;;
3867;SDS011;1949;48.152;11.528;2022-09-24T13:19:06;4.80;;;3.77;;
3867;SDS011;1949;48.152;11.528;2022-09-24T13:21:52;9.70;;;4.30;;
3867;SDS011;1949;48.152;11.528;2022-09-24T13:24:43;7.10;;;4.40;;
3867;SDS011;1949;48.152;11.528;2022-09-24T13:27:32;10.77;;;4.77;;
3867;SDS011;1949;48.152;11.528;2022-09-24T13:33:27;5.07;;;3.97;;
3867;SDS011;1949;48.152;11.528;2022-09-24T13:36:04;6.07;;;4.33;;
3867;SDS011;1949;48.152;11.528;2022-09-24T13:38:42;7.40;;;3.87;;
3867;SDS011;1949;48.152;11.528;2022-09-24T13:41:21;5.30;;;3.70;;
3867;SDS011;1949;48.152;11.528;2022-09-24T13:43:54;7.93;;;4.33;;
3867;SDS011;1949;48.152;11.528;2022-09-24T13:46:24;6.97;;;4.83;;
3867;SDS011;1949;48.152;11.528;2022-09-24T13:48:52;5.00;;;3.70;;
3867;SDS011;1949;48.152;11.528;2022-09-24T13:51:23;9.23;;;4.53;;
3867;SDS011;1949;48.152;11.528;2022-09-24T13:53:54;5.77;;;4.10;;
3867;SDS011;1949;48.152;11.528;2022-09-24T13:56:38;6.33;;;4.40;;
3867;SDS011;1949;48.152;11.528;2022-09-24T13:59:05;6.67;;;4.30;;
3867;SDS011;1949;48.152;11.528;2022-09-24T14:01:38;6.03;;;4.50;;
3867;SDS011;1949;48.152;11.528;2022-09-24T14:04:22;6.17;;;4.37;;
3867;SDS011;1949;48.152;11.528;2022-09-24T14:06:49;5.93;;;3.90;;
3867;SDS011;1949;48.152;11.528;2022-09-24T14:11:59;8.77;;;4.27;;
3867;SDS011;1949;48.152;11.528;2022-09-24T14:14:29;9.67;;;4.50;;
3867;SDS011;1949;48.152;11.528;2022-09-24T14:17:05;5.67;;;4.17;;
3867;SDS011;1949;48.152;11.528;2022-09-24T14:19:33;9.87;;;4.33;;
3867;SDS011;1949;48.152;11.528;2022-09-24T14:22:00;5.70;;;4.00;;
3867;SDS011;1949;48.152;11.528;2022-09-24T14:24:31;5.90;;;4.10;;
3867;SDS011;1949;48.152;11.528;2022-09-24T14:27:07;6.80;;;4.17;;
3867;SDS011;1949;48.152;11.528;2022-09-24T14:29:47;6.33;;;3.60;;
3867;SDS011;1949;48.152;11.528;2022-09-24T14:32:20;4.90;;;3.87;;
3867;SDS011;1949;48.152;11.528;2022-09-24T14:34:50;7.40;;;5.07;;
3867;SDS011;1949;48.152;11.528;2022-09-24T14:37:23;9.47;;;5.10;;
3867;SDS011;1949;48.152;11.528;2022-09-24T14:39:56;6.57;;;4.53;;
3867;SDS011;1949;48.152;11.528;2022-09-24T14:42:39;5.67;;;3.90;;
3867;SDS011;1949;48.152;11.528;2022-09-24T14:45:16;6.97;;;4.60;;
3867;SDS011;1949;48.152;11.528;2022-09-24T14:47:58;7.60;;;4.57;;
3867;SDS011;1949;48.152;11.528;2022-09-24T14:52:54;7.63;;;4.40;;
3867;SDS011;1949;48.152;11.528;2022-09-24T14:55:24;9.53;;;4.60;;
3867;SDS011;1949;48.152;11.528;2022-09-24T14:58:04;11.87;;;7.03;;
3867;SDS011;1949;48.152;11.528;2022-09-24T15:00:45;6.33;;;4.23;;
3867;SDS011;1949;48.152;11.528;2022-09-24T15:03:13;6.13;;;4.33;;
3867;SDS011;1949;48.152;11.528;2022-09-24T15:05:41;38.53;;;15.60;;
3867;SDS011;1949;48.152;11.528;2022-09-24T15:08:42;10.87;;;6.67;;
3867;SDS011;1949;48.152;11.528;2022-09-24T15:11:01;18.57;;;9.67;;
3867;SDS011;1949;48.152;11.528;2022-09-24T15:13:31;14.90;;;6.17;;
3867;SDS011;1949;48.152;11.528;2022-09-24T15:18:40;9.70;;;6.23;;
3867;SDS011;1949;48.152;11.528;2022-09-24T15:21:06;8.97;;;5.20;;
3867;SDS011;1949;48.152;11.528;2022-09-24T15:23:35;10.50;;;5.97;;
3867;SDS011;1949;48.152;11.528;2022-09-24T15:26:03;30.83;;;10.87;;
3867;SDS011;1949;48.152;11.528;2022-09-24T15:28:29;39.20;;;20.43;;
3867;SDS011;1949;48.152;11.528;2022-09-24T15:30:55;20.63;;;10.77;;
3867;SDS011;1949;48.152;11.528;2022-09-24T15:33:21;16.37;;;9.40;;
3867;SDS011;1949;48.152;11.528;2022-09-24T15:35:49;20.73;;;10.87;;
3867;SDS011;1949;48.152;11.528;2022-09-24T15:38:17;45.73;;;22.07;;
3867;SDS011;1949;48.152;11.528;2022-09-24T15:40:43;20.20;;;9.90;;
3867;SDS011;1949;48.152;11.528;2022-09-24T15:43:31;14.50;;;7.30;;
3867;SDS011;1949;48.152;11.528;2022-09-24T15:45:55;12.77;;;7.37;;
3867;SDS011;1949;48.152;11.528;2022-09-24T15:48:21;14.47;;;6.73;;
3867;SDS011;1949;48.152;11.528;2022-09-24T15:50:47;8.87;;;5.87;;
3867;SDS011;1949;48.152;11.528;2022-09-24T15:53:22;12.83;;;6.80;;
3867;SDS011;1949;48.152;11.528;2022-09-24T15:55:53;16.43;;;9.00;;
3867;SDS011;1949;48.152;11.528;2022-09-24T15:58:22;18.90;;;10.27;;
3867;SDS011;1949;48.152;11.528;2022-09-24T16:00:49;14.63;;;8.33;;
3867;SDS011;1949;48.152;11.528;2022-09-24T16:03:23;13.27;;;7.07;;
3867;SDS011;1949;48.152;11.528;2022-09-24T16:05:51;11.20;;;6.40;;
3867;SDS011;1949;48.152;11.528;2022-09-24T16:08:18;8.83;;;6.07;;
3867;SDS011;1949;48.152;11.528;2022-09-24T16:10:44;13.43;;;6.00;;
3867;SDS011;1949;48.152;11.528;2022-09-24T16:13:10;14.10;;;5.53;;
3867;SDS011;1949;48.152;11.528;2022-09-24T16:15:38;13.10;;;6.43;;
3867;SDS011;1949;48.152;11.528;2022-09-24T16:18:05;7.50;;;5.53;;
3867;SDS011;1949;48.152;11.528;2022-09-24T16:20:36;8.13;;;5.67;;
3867;SDS011;1949;48.152;11.528;2022-09-24T16:23:03;13.17;;;7.20;;
3867;SDS011;1949;48.152;11.528;2022-09-24T16:25:29;11.20;;;6.10;;
3867;SDS011;1949;48.152;11.528;2022-09-24T16:27:56;11.50;;;7.23;;
3867;SDS011;1949;48.152;11.528;2022-09-24T16:30:22;12.20;;;6.87;;
3867;SDS011;1949;48.152;11.528;2022-09-24T16:32:49;11.83;;;6.57;;
3867;SDS011;1949;48.152;11.528;2022-09-24T16:35:15;10.10;;;5.77;;
3867;SDS011;1949;48.152;11.528;2022-09-24T16:37:41;15.30;;;8.20;;
3867;SDS011;1949;48.152;11.528;2022-09-24T16:40:07;12.20;;;8.07;;
3867;SDS011;1949;48.152;11.528;2022-09-24T16:42:34;14.23;;;7.23;;
3867;SDS011;1949;48.152;11.528;2022-09-24T16:45:00;13.27;;;7.13;;
3867;SDS011;1949;48.152;11.528;2022-09-24T16:47:28;9.70;;;6.93;;
3867;SDS011;1949;48.152;11.528;2022-09-24T16:49:54;11.03;;;6.53;;
3867;SDS011;1949;48.152;11.528;2022-09-24T16:52:21;17.13;;;7.57;;
3867;SDS011;1949;48.152;11.528;2022-09-24T16:54:47;16.40;;;7.53;;
3867;SDS011;1949;48.152;11.528;2022-09-24T16:57:13;11.87;;;6.97;;
3867;SDS011;1949;48.152;11.528;2022-09-24T16:59:38;11.83;;;7.00;;
3867;SDS011;1949;48.152;11.528;2022-09-24T17:02:10;11.20;;;7.50;;
3867;SDS011;1949;48.152;11.528;2022-09-24T17:04:37;13.53;;;7.00;;
3867;SDS011;1949;48.152;11.528;2022-09-24T17:07:02;10.50;;;7.30;;
3867;SDS011;1949;48.152;11.528;2022-09-24T17:09:28;14.83;;;6.97;;
3867;SDS011;1949;48.152;11.528;2022-09-24T17:12:12;12.60;;;7.23;;
3867;SDS011;1949;48.152;11.528;2022-09-24T17:14:38;11.03;;;7.30;;
3867;SDS011;1949;48.152;11.528;2022-09-24T17:17:04;10.97;;;7.00;;
3867;SDS011;1949;48.152;11.528;2022-09-24T17:19:30;21.57;;;8.10;;
3867;SDS011;1949;48.152;11.528;2022-09-24T17:21:57;12.60;;;8.47;;
3867;SDS011;1949;48.152;11.528;2022-09-24T17:24:23;11.20;;;7.20;;
3867;SDS011;1949;48.152;11.528;2022-09-24T17:26:48;13.53;;;7.43;;
3867;SDS011;1949;48.152;11.528;2022-09-24T17:29:15;12.60;;;8.10;;
3867;SDS011;1949;48.152;11.528;2022-09-24T17:31:44;14.93;;;8.30;;
3867;SDS011;1949;48.152;11.528;2022-09-24T17:34:10;22.63;;;8.40;;
3867;SDS011;1949;48.152;11.528;2022-09-24T17:36:36;12.97;;;8.07;;
3867;SDS011;1949;48.152;11.528;2022-09-24T17:39:02;14.90;;;8.50;;
3867;SDS011;1949;48.152;11.528;2022-09-24T17:41:30;15.37;;;8.93;;
3867;SDS011;1949;48.152;11.528;2022-09-24T17:43:56;61.77;;;30.10;;
3867;SDS011;1949;48.152;11.528;2022-09-24T17:46:26;107.23;;;49.50;;
3867;SDS011;1949;48.152;11.528;2022-09-24T17:48:53;42.10;;;19.87;;
3867;SDS011;1949;48.152;11.528;2022-09-24T17:51:26;20.30;;;11.83;;